EGHN weather

Isle of Wight / Sandown Airport
Sandown, England, United Kingdom

Public forecast

Using degrees Celsius for public forecast. Weather courtesy of forecast.io.

METAR (pilot weather report)

Closest report is Southampton Airport, 19.0 nm (35.3 km) NNW. Retrieved 2019/03/23 09:50 UTC (16 minutes ago):

EGHI 230950Z 04006KT 360V080 9999 SCT015 BKN022 10/07 Q1032

TAF (pilot weather forecast)

Forecast is more than 12 hours old.

Closest forecast is Southampton Airport, 19.0 nm (35.3 km) NNW. Retrieved 2016/03/02 12:00 UTC (3 years ago):

TAF EGHI 021104Z 0212/0221 28015G25KT 9999 SCT020 TEMPO 0212/0221 29020G35KT PROB30 TEMPO 0212/0213 4000 SHRA BKN012CB TEMPO 0218/0221 BKN014